createdAt,value
2022-12-12T00:00:51.072Z,0.87
2022-12-12T00:03:18.054Z,1.13
2022-12-12T00:05:44.715Z,1.90
2022-12-12T00:08:11.502Z,2.00
2022-12-12T00:10:38.184Z,1.30
2022-12-12T00:13:05.100Z,0.77
2022-12-12T00:15:31.881Z,1.60
2022-12-12T00:17:58.537Z,1.13
2022-12-12T00:20:25.173Z,0.70
2022-12-12T00:22:51.791Z,1.10
2022-12-12T00:25:18.439Z,1.27
2022-12-12T00:27:45.144Z,1.63
2022-12-12T00:30:12.273Z,0.90
2022-12-12T00:32:38.900Z,1.40
2022-12-12T00:35:05.992Z,1.63
2022-12-12T00:37:32.632Z,1.07
2022-12-12T00:39:59.404Z,1.20
2022-12-12T00:42:27.407Z,0.67
2022-12-12T00:44:54.200Z,2.07
2022-12-12T00:47:20.899Z,2.33
2022-12-12T00:49:47.491Z,1.97
2022-12-12T00:52:14.163Z,1.57
2022-12-12T00:54:40.935Z,1.10
2022-12-12T00:57:07.580Z,0.87
2022-12-12T00:59:34.264Z,1.10
2022-12-12T01:02:01.068Z,0.90
2022-12-12T01:04:28.094Z,1.53
2022-12-12T01:06:54.821Z,1.20
2022-12-12T01:09:21.485Z,1.00
2022-12-12T01:11:48.115Z,1.30
2022-12-12T01:14:14.896Z,1.20
2022-12-12T01:16:41.855Z,1.50
2022-12-12T01:19:08.810Z,1.60
2022-12-12T01:21:36.915Z,0.97
2022-12-12T01:24:03.796Z,0.70
2022-12-12T01:26:30.415Z,1.13
2022-12-12T01:28:57.195Z,0.87
2022-12-12T01:31:24.156Z,1.10
2022-12-12T01:33:51.194Z,1.00
2022-12-12T01:36:20.256Z,0.70
2022-12-12T01:38:48.655Z,1.17
2022-12-12T01:41:15.736Z,0.77
2022-12-12T01:43:42.446Z,1.30
2022-12-12T01:46:37.263Z,1.10
2022-12-12T01:49:14.439Z,0.87
2022-12-12T01:51:42.465Z,1.03
2022-12-12T01:54:15.095Z,1.00
2022-12-12T01:56:44.544Z,1.13
2022-12-12T01:59:13.147Z,0.90
2022-12-12T02:01:40.452Z,0.80
2022-12-12T02:04:08.067Z,0.97
2022-12-12T02:06:34.905Z,0.90
2022-12-12T02:09:05.522Z,0.90
2022-12-12T02:11:33.294Z,1.10
2022-12-12T02:14:00.208Z,0.93
2022-12-12T02:16:48.076Z,1.10
2022-12-12T02:19:51.502Z,1.73
2022-12-12T02:22:52.535Z,0.97
2022-12-12T02:25:47.317Z,1.20
2022-12-12T02:28:19.774Z,0.97
2022-12-12T02:31:15.990Z,1.37
2022-12-12T02:33:45.637Z,1.30
2022-12-12T02:36:19.635Z,1.63
2022-12-12T02:39:07.541Z,1.13
2022-12-12T02:42:05.250Z,0.70
2022-12-12T02:44:59.979Z,1.07
2022-12-12T02:47:39.847Z,1.33
2022-12-12T02:50:09.009Z,1.07
2022-12-12T02:52:36.892Z,0.67
2022-12-12T02:55:04.713Z,1.10
2022-12-12T02:57:31.312Z,1.43
2022-12-12T03:00:08.930Z,0.83
2022-12-12T03:02:48.871Z,1.10
2022-12-12T03:05:57.565Z,1.23
2022-12-12T03:08:36.154Z,0.63
2022-12-12T03:11:20.035Z,1.30
2022-12-12T03:13:53.505Z,0.80
2022-12-12T03:16:39.344Z,1.80
2022-12-12T03:19:10.878Z,1.60
2022-12-12T03:21:47.079Z,1.70
2022-12-12T03:24:35.500Z,1.50
2022-12-12T03:27:07.274Z,0.90
2022-12-12T03:29:39.197Z,0.70
2022-12-12T03:32:11.023Z,1.30
2022-12-12T03:34:44.820Z,0.87
2022-12-12T03:37:24.501Z,1.30
2022-12-12T03:40:02.299Z,1.07
2022-12-12T03:42:42.342Z,1.50
2022-12-12T03:45:17.623Z,1.70
2022-12-12T03:47:56.103Z,1.07
2022-12-12T03:50:25.613Z,1.03
2022-12-12T03:52:58.934Z,1.30
2022-12-12T03:55:31.374Z,1.10
2022-12-12T03:58:00.674Z,1.57
2022-12-12T04:00:28.649Z,1.30
2022-12-12T04:03:23.226Z,1.03
2022-12-12T04:06:27.405Z,1.47
2022-12-12T04:09:22.315Z,1.20
2022-12-12T04:12:41.645Z,1.57
2022-12-12T04:15:26.952Z,1.07
2022-12-12T04:18:08.783Z,1.33
2022-12-12T04:21:17.236Z,1.40
2022-12-12T04:24:02.655Z,1.33
2022-12-12T04:26:52.804Z,1.13
2022-12-12T04:29:19.410Z,1.20
2022-12-12T04:31:51.980Z,1.20
2022-12-12T04:34:55.414Z,1.27
2022-12-12T04:37:26.567Z,1.43
2022-12-12T04:39:55.588Z,1.77
2022-12-12T04:42:24.704Z,1.50
2022-12-12T04:44:54.224Z,1.30
2022-12-12T04:47:22.317Z,1.53
2022-12-12T04:49:50.114Z,1.20
2022-12-12T04:52:18.854Z,0.83
2022-12-12T04:54:51.782Z,1.30
2022-12-12T04:57:23.579Z,1.37
2022-12-12T04:59:50.454Z,1.07
2022-12-12T05:02:40.353Z,1.03
2022-12-12T05:05:18.975Z,0.97
2022-12-12T05:08:27.842Z,0.83
2022-12-12T05:10:56.227Z,1.33
2022-12-12T05:13:40.766Z,0.70
2022-12-12T05:16:32.765Z,1.50
2022-12-12T05:19:00.178Z,0.83
2022-12-12T05:21:26.955Z,1.60
2022-12-12T05:23:53.887Z,1.70
2022-12-12T05:26:23.701Z,1.10
2022-12-12T05:28:53.016Z,1.33
2022-12-12T05:31:20.147Z,1.53
2022-12-12T05:33:46.940Z,1.43
2022-12-12T05:36:14.210Z,0.80
2022-12-12T05:38:40.994Z,0.83
2022-12-12T05:41:08.245Z,0.73
2022-12-12T05:43:35.282Z,0.83
2022-12-12T05:46:02.090Z,0.70
2022-12-12T05:48:28.812Z,1.00
2022-12-12T05:50:55.691Z,0.97
2022-12-12T05:53:23.278Z,1.10
2022-12-12T05:55:51.570Z,0.70
2022-12-12T05:58:19.669Z,0.90
2022-12-12T06:00:52.776Z,1.17
2022-12-12T06:03:19.773Z,0.97
2022-12-12T06:05:46.679Z,1.27
2022-12-12T06:08:13.667Z,1.60
2022-12-12T06:10:40.406Z,1.10
2022-12-12T06:13:07.087Z,1.43
2022-12-12T06:15:33.835Z,1.70
2022-12-12T06:18:00.546Z,1.70
2022-12-12T06:20:27.339Z,0.93
2022-12-12T06:22:54.174Z,1.10
2022-12-12T06:25:21.386Z,6.50
2022-12-12T06:27:48.129Z,1.17
2022-12-12T06:30:15.094Z,1.67
2022-12-12T06:32:42.784Z,1.27
2022-12-12T06:35:10.480Z,1.17
2022-12-12T06:37:37.440Z,2.40
2022-12-12T06:40:05.062Z,1.47
2022-12-12T06:42:31.894Z,1.27
2022-12-12T06:44:58.692Z,1.10
2022-12-12T06:47:25.409Z,3.13
2022-12-12T06:49:52.476Z,2.77
2022-12-12T06:52:19.163Z,2.30
2022-12-12T06:54:46.542Z,1.10
2022-12-12T06:57:13.294Z,0.50
2022-12-12T06:59:40.053Z,1.20
2022-12-12T07:02:07.219Z,1.10
2022-12-12T07:04:33.993Z,1.63
2022-12-12T07:07:00.733Z,1.50
2022-12-12T07:09:28.464Z,1.93
2022-12-12T07:11:55.359Z,1.50
2022-12-12T07:14:22.126Z,1.10
2022-12-12T07:16:48.992Z,1.73
2022-12-12T07:19:15.733Z,2.33
2022-12-12T07:21:42.483Z,0.90
2022-12-12T07:24:09.382Z,0.90
2022-12-12T07:26:36.253Z,1.37
2022-12-12T07:29:05.414Z,1.43
2022-12-12T07:31:32.418Z,1.43
2022-12-12T07:33:59.245Z,1.90
2022-12-12T07:36:26.022Z,0.87
2022-12-12T07:38:52.757Z,1.10
2022-12-12T07:41:20.952Z,1.33
2022-12-12T07:43:48.132Z,1.50
2022-12-12T07:46:18.020Z,1.10
2022-12-12T07:48:44.890Z,1.53
2022-12-12T07:51:12.130Z,1.90
2022-12-12T07:53:38.876Z,1.40
2022-12-12T07:56:10.116Z,1.57
2022-12-12T07:58:37.256Z,1.13
2022-12-12T08:01:15.696Z,1.53
2022-12-12T08:03:44.404Z,1.47
2022-12-12T08:06:11.726Z,1.70
2022-12-12T08:08:38.705Z,1.10
2022-12-12T08:11:07.464Z,1.00
2022-12-12T08:13:36.205Z,0.73
2022-12-12T08:16:03.640Z,1.20
2022-12-12T08:18:30.566Z,2.80
2022-12-12T08:20:57.353Z,1.30
2022-12-12T08:23:24.262Z,2.30
2022-12-12T08:25:51.113Z,1.33
2022-12-12T08:28:18.668Z,0.70
2022-12-12T08:30:50.092Z,1.27
2022-12-12T08:33:17.174Z,1.53
2022-12-12T08:35:43.935Z,1.10
2022-12-12T08:38:10.732Z,1.30
2022-12-12T08:40:37.454Z,1.43
2022-12-12T08:43:04.178Z,0.87
2022-12-12T08:45:30.851Z,1.07
2022-12-12T08:47:58.765Z,1.90
2022-12-12T08:50:25.687Z,1.60
2022-12-12T08:52:52.980Z,1.33
2022-12-12T08:55:20.307Z,1.80
2022-12-12T08:57:47.209Z,2.10
2022-12-12T09:00:14.594Z,1.10
2022-12-12T09:02:41.648Z,1.23
2022-12-12T09:05:08.814Z,1.50
2022-12-12T09:07:36.445Z,1.20
2022-12-12T09:10:04.814Z,1.03
2022-12-12T09:12:34.523Z,0.97
2022-12-12T09:15:04.076Z,1.27
2022-12-12T09:17:31.052Z,0.97
2022-12-12T09:19:57.764Z,1.00
2022-12-12T09:22:24.534Z,1.47
2022-12-12T09:24:51.254Z,1.17
2022-12-12T09:27:17.982Z,1.80
2022-12-12T09:29:44.684Z,0.80
2022-12-12T09:32:11.493Z,1.07
2022-12-12T09:34:38.711Z,0.90
2022-12-12T09:37:05.694Z,1.57
2022-12-12T09:39:32.465Z,1.47
2022-12-12T09:42:11.785Z,1.53
2022-12-12T09:44:38.905Z,1.57
2022-12-12T09:47:11.155Z,1.47
2022-12-12T09:49:45.515Z,1.50
2022-12-12T09:52:15.526Z,1.40
2022-12-12T09:54:42.371Z,1.60
2022-12-12T09:57:27.324Z,0.90
2022-12-12T10:00:09.575Z,1.30
2022-12-12T10:02:36.275Z,2.23
2022-12-12T10:05:08.797Z,1.00
2022-12-12T10:07:42.804Z,0.80
2022-12-12T10:10:15.473Z,0.97
2022-12-12T10:12:42.656Z,0.93
2022-12-12T10:15:27.575Z,1.23
2022-12-12T10:17:55.762Z,1.67
2022-12-12T10:20:31.316Z,1.00
2022-12-12T10:23:07.254Z,1.10
2022-12-12T10:25:47.819Z,1.00
2022-12-12T10:28:16.415Z,1.37
2022-12-12T10:31:10.849Z,1.50
2022-12-12T10:34:30.163Z,1.50
2022-12-12T10:37:05.615Z,1.27
2022-12-12T10:39:41.105Z,0.93
2022-12-12T10:42:35.757Z,1.37
2022-12-12T10:45:02.453Z,0.90
2022-12-12T10:47:29.194Z,0.97
2022-12-12T10:50:19.175Z,1.47
2022-12-12T10:52:45.959Z,1.70
2022-12-12T10:55:21.607Z,1.33
2022-12-12T10:57:48.344Z,1.00
2022-12-12T11:00:26.948Z,1.27
2022-12-12T11:02:59.964Z,2.70
2022-12-12T11:05:29.693Z,1.30
2022-12-12T11:08:32.838Z,1.30
2022-12-12T11:11:21.206Z,0.90
2022-12-12T11:13:52.484Z,1.07
2022-12-12T11:16:28.841Z,0.93
2022-12-12T11:19:05.227Z,1.07
2022-12-12T11:21:34.828Z,1.00
2022-12-12T11:24:07.375Z,1.83
2022-12-12T11:26:43.546Z,1.03
2022-12-12T11:29:26.474Z,1.70
2022-12-12T11:31:53.552Z,0.97
2022-12-12T11:34:21.554Z,1.13
2022-12-12T11:36:48.455Z,1.00
2022-12-12T11:39:24.032Z,1.63
2022-12-12T11:42:13.034Z,1.43
2022-12-12T11:44:40.525Z,1.30
2022-12-12T11:47:22.624Z,1.63
2022-12-12T11:49:54.804Z,1.23
2022-12-12T11:52:33.946Z,0.83
2022-12-12T11:55:01.076Z,1.03
2022-12-12T11:57:52.700Z,1.43
2022-12-12T12:00:21.486Z,1.17
2022-12-12T12:02:48.196Z,1.57
2022-12-12T12:05:33.566Z,1.47
2022-12-12T12:08:40.901Z,1.30
2022-12-12T12:11:32.764Z,1.67
2022-12-12T12:14:19.828Z,1.30
2022-12-12T12:16:47.242Z,1.10
2022-12-12T12:19:37.136Z,1.50
2022-12-12T12:22:18.992Z,1.70
2022-12-12T12:24:45.672Z,1.10
2022-12-12T12:27:34.204Z,1.20
2022-12-12T12:30:00.884Z,2.20
2022-12-12T12:32:33.435Z,1.60
2022-12-12T12:35:15.315Z,1.47
2022-12-12T12:38:25.142Z,1.00
2022-12-12T12:41:15.263Z,1.27
2022-12-12T12:43:58.454Z,2.10
2022-12-12T12:46:53.386Z,1.90
2022-12-12T12:49:25.146Z,2.27
2022-12-12T12:52:21.793Z,1.43
2022-12-12T12:54:49.488Z,1.57
2022-12-12T12:57:25.156Z,2.10
2022-12-12T12:59:54.921Z,1.87
2022-12-12T13:02:55.765Z,2.17
2022-12-12T13:05:42.654Z,3.33
2022-12-12T13:08:40.446Z,3.90
2022-12-12T13:11:11.194Z,4.30
2022-12-12T13:13:40.654Z,3.63
2022-12-12T13:16:08.150Z,3.60
2022-12-12T13:18:45.171Z,4.10
2022-12-12T13:21:25.511Z,3.50
2022-12-12T13:23:56.957Z,2.23
2022-12-12T13:26:29.440Z,3.10
2022-12-12T13:29:04.588Z,3.57
2022-12-12T13:31:38.180Z,2.70
2022-12-12T13:34:15.058Z,2.53
2022-12-12T13:36:44.069Z,2.90
2022-12-12T13:39:32.384Z,3.90
2022-12-12T13:42:01.789Z,3.37
2022-12-12T13:44:46.132Z,3.07
2022-12-12T13:47:25.147Z,4.60
2022-12-12T13:50:14.976Z,3.97
2022-12-12T13:52:43.017Z,3.03
2022-12-12T13:55:19.094Z,1.47
2022-12-12T13:58:02.784Z,2.93
2022-12-12T14:00:39.493Z,3.43
2022-12-12T14:03:18.435Z,2.30
2022-12-12T14:05:50.512Z,2.60
2022-12-12T14:08:17.246Z,2.70
2022-12-12T14:10:49.964Z,2.60
2022-12-12T14:13:22.456Z,7.70
2022-12-12T14:15:58.279Z,5.73
2022-12-12T14:18:51.786Z,5.50
2022-12-12T14:21:20.852Z,2.47
2022-12-12T14:23:49.792Z,2.80
2022-12-12T14:26:28.381Z,4.00
2022-12-12T14:29:16.888Z,3.10
2022-12-12T14:31:53.994Z,3.43
2022-12-12T14:34:33.295Z,1.93
2022-12-12T14:37:18.053Z,2.80
2022-12-12T14:39:51.283Z,2.37
2022-12-12T14:42:28.003Z,2.80
2022-12-12T14:45:29.224Z,2.80
2022-12-12T14:48:29.551Z,2.50
2022-12-12T14:51:12.158Z,3.80
2022-12-12T14:53:39.096Z,3.93
2022-12-12T14:56:17.814Z,3.60
2022-12-12T14:58:57.979Z,4.07
2022-12-12T15:01:38.825Z,3.50
2022-12-12T15:04:10.357Z,4.00
2022-12-12T15:06:50.934Z,3.37
2022-12-12T15:09:31.061Z,3.50
2022-12-12T15:12:10.135Z,3.00
2022-12-12T15:14:57.507Z,2.23
2022-12-12T15:17:28.052Z,53.47
2022-12-12T15:20:01.297Z,40.00
2022-12-12T15:22:33.177Z,23.93
2022-12-12T15:25:01.837Z,7.40
2022-12-12T15:27:30.680Z,2.93
2022-12-12T15:29:59.214Z,2.97
2022-12-12T15:32:27.469Z,3.17
2022-12-12T15:35:04.464Z,4.27
2022-12-12T15:37:38.453Z,2.00
2022-12-12T15:40:11.331Z,3.30
2022-12-12T15:42:38.806Z,2.03
2022-12-12T15:45:09.101Z,2.57
2022-12-12T15:47:35.908Z,2.63
2022-12-12T15:50:09.359Z,2.00
2022-12-12T15:52:36.054Z,2.20
2022-12-12T15:55:05.193Z,2.33
2022-12-12T15:57:34.528Z,3.33
2022-12-12T16:00:05.803Z,2.83
2022-12-12T16:02:35.519Z,3.23
2022-12-12T16:05:07.646Z,4.70
2022-12-12T16:07:37.826Z,4.50
2022-12-12T16:10:21.565Z,4.93
2022-12-12T16:13:24.334Z,3.70
2022-12-12T16:15:51.092Z,2.33
2022-12-12T16:18:23.681Z,1.43
2022-12-12T16:20:55.133Z,2.03
2022-12-12T16:23:30.899Z,2.67
2022-12-12T16:25:58.702Z,4.87
2022-12-12T16:28:30.014Z,8.00
2022-12-12T16:30:58.674Z,10.37
2022-12-12T16:33:35.812Z,7.30
2022-12-12T16:36:05.710Z,4.93
2022-12-12T16:38:32.627Z,2.67
2022-12-12T16:41:03.165Z,1.83
2022-12-12T16:43:30.016Z,1.53
2022-12-12T16:45:57.718Z,2.70
2022-12-12T16:48:26.849Z,2.03
2022-12-12T16:50:58.374Z,1.80
2022-12-12T16:53:25.143Z,2.20
2022-12-12T16:55:52.796Z,1.77
2022-12-12T16:58:21.352Z,1.97
2022-12-12T17:00:48.448Z,2.10
2022-12-12T17:03:16.430Z,2.40
2022-12-12T17:05:45.362Z,3.20
2022-12-12T17:08:13.094Z,5.67
2022-12-12T17:10:39.884Z,7.17
2022-12-12T17:13:08.217Z,8.50
2022-12-12T17:15:34.928Z,5.37
2022-12-12T17:18:02.441Z,4.10
2022-12-12T17:20:37.610Z,3.20
2022-12-12T17:25:50.573Z,4.97
2022-12-12T17:28:19.614Z,2.83
2022-12-12T17:30:49.821Z,1.20
2022-12-12T17:33:18.203Z,1.70
2022-12-12T17:35:45.203Z,1.53
2022-12-12T17:38:16.098Z,1.77
2022-12-12T17:40:43.764Z,1.80
2022-12-12T17:43:10.424Z,1.33
2022-12-12T17:45:37.200Z,1.60
2022-12-12T17:48:05.158Z,1.90
2022-12-12T17:50:34.030Z,2.77
2022-12-12T17:53:03.885Z,2.60
2022-12-12T17:55:53.232Z,2.40
2022-12-12T17:58:17.270Z,0.90
2022-12-12T18:00:44.160Z,1.77
2022-12-12T18:03:10.857Z,1.40
2022-12-12T18:05:37.599Z,2.60
2022-12-12T18:08:04.435Z,1.90
2022-12-12T18:10:31.288Z,2.20
2022-12-12T18:12:58.668Z,1.30
2022-12-12T18:15:25.621Z,2.23
2022-12-12T18:17:52.271Z,2.53
2022-12-12T18:20:20.051Z,1.27
2022-12-12T18:22:46.716Z,2.40
2022-12-12T18:25:13.354Z,2.53
2022-12-12T18:27:40.538Z,3.00
2022-12-12T18:30:07.703Z,2.30
2022-12-12T18:32:34.385Z,3.27
2022-12-12T18:35:01.015Z,2.73
2022-12-12T18:37:27.747Z,4.90
2022-12-12T18:39:54.451Z,3.73
2022-12-12T18:42:21.779Z,2.97
2022-12-12T18:44:48.524Z,3.43
2022-12-12T18:47:15.164Z,2.80
2022-12-12T18:49:41.866Z,2.13
2022-12-12T18:52:08.639Z,1.87
2022-12-12T18:54:36.178Z,1.90
2022-12-12T18:57:02.986Z,1.70
2022-12-12T18:59:29.685Z,1.20
2022-12-12T19:01:56.416Z,1.87
2022-12-12T19:04:23.832Z,1.37
2022-12-12T19:06:50.891Z,1.43
2022-12-12T19:09:18.664Z,1.73
2022-12-12T19:11:49.102Z,2.43
2022-12-12T19:14:16.853Z,1.20
2022-12-12T19:16:44.203Z,1.70
2022-12-12T19:19:12.149Z,2.33
2022-12-12T19:21:39.081Z,3.20
2022-12-12T19:24:09.409Z,2.20
2022-12-12T19:26:37.140Z,1.70
2022-12-12T19:29:09.839Z,1.50
2022-12-12T19:31:36.670Z,1.50
2022-12-12T19:34:04.846Z,1.47
2022-12-12T19:36:32.546Z,1.53
2022-12-12T19:39:00.803Z,1.13
2022-12-12T19:41:28.568Z,1.10
2022-12-12T19:43:57.339Z,1.50
2022-12-12T19:46:26.243Z,1.83
2022-12-12T19:48:57.625Z,3.10
2022-12-12T19:51:25.897Z,3.10
2022-12-12T19:53:58.563Z,2.93
2022-12-12T19:56:33.222Z,3.40
2022-12-12T19:59:01.560Z,3.10
2022-12-12T20:01:31.335Z,4.00
2022-12-12T20:04:08.817Z,4.43
2022-12-12T20:06:42.125Z,6.17
2022-12-12T20:09:09.927Z,5.40
2022-12-12T20:11:37.585Z,2.97
2022-12-12T20:14:05.172Z,2.40
2022-12-12T20:16:31.986Z,2.17
2022-12-12T20:18:59.778Z,2.37
2022-12-12T20:22:00.422Z,2.00
2022-12-12T20:24:17.055Z,2.10
2022-12-12T20:26:44.370Z,2.27
2022-12-12T20:29:12.993Z,1.77
2022-12-12T20:31:43.558Z,1.90
2022-12-12T20:34:11.770Z,2.40
2022-12-12T20:36:40.752Z,2.37
2022-12-12T20:39:09.509Z,2.70
2022-12-12T20:41:40.538Z,1.70
2022-12-12T20:44:09.337Z,1.77
2022-12-12T20:46:38.235Z,2.10
2022-12-12T20:49:07.393Z,3.07
2022-12-12T20:54:22.892Z,2.43
2022-12-12T20:56:50.122Z,3.00
2022-12-12T20:59:16.911Z,3.07
2022-12-12T21:01:43.647Z,2.70
2022-12-12T21:04:10.712Z,3.30
2022-12-12T21:06:40.831Z,3.00
2022-12-12T21:09:09.546Z,2.77
2022-12-12T21:11:37.376Z,2.70
2022-12-12T21:14:04.307Z,1.83
2022-12-12T21:16:34.070Z,1.63
2022-12-12T21:19:03.750Z,1.97
2022-12-12T21:21:30.647Z,2.83
2022-12-12T21:23:57.895Z,1.33
2022-12-12T21:26:29.129Z,2.17
2022-12-12T21:28:56.769Z,2.13
2022-12-12T21:31:26.244Z,1.90
2022-12-12T21:33:53.533Z,1.43
2022-12-12T21:36:21.653Z,2.00
2022-12-12T21:38:48.899Z,1.90
2022-12-12T21:41:18.007Z,2.50
2022-12-12T21:43:45.338Z,1.60
2022-12-12T21:46:18.093Z,2.63
2022-12-12T21:48:45.135Z,1.90
2022-12-12T21:51:16.811Z,2.40
2022-12-12T21:53:43.486Z,2.37
2022-12-12T21:56:17.585Z,1.77
2022-12-12T21:58:46.211Z,1.87
2022-12-12T22:01:16.397Z,1.73
2022-12-12T22:03:43.625Z,2.70
2022-12-12T22:06:14.711Z,2.20
2022-12-12T22:08:42.106Z,2.93
2022-12-12T22:11:09.868Z,2.67
2022-12-12T22:13:40.146Z,2.50
2022-12-12T22:16:10.795Z,1.80
2022-12-12T22:18:37.385Z,2.23
2022-12-12T22:21:08.917Z,2.30
2022-12-12T22:23:36.667Z,2.33
2022-12-12T22:26:17.480Z,2.20
2022-12-12T22:28:44.342Z,1.67
2022-12-12T22:31:11.339Z,2.63
2022-12-12T22:33:38.433Z,1.93
2022-12-12T22:36:06.788Z,1.10
2022-12-12T22:38:38.021Z,1.50
2022-12-12T22:41:06.310Z,1.43
2022-12-12T22:43:33.409Z,2.00
2022-12-12T22:46:09.827Z,1.27
2022-12-12T22:48:36.617Z,1.60
2022-12-12T22:51:18.039Z,1.20
2022-12-12T22:53:45.079Z,1.27
2022-12-12T22:56:12.593Z,2.20
2022-12-12T22:58:39.457Z,1.40
2022-12-12T23:01:08.103Z,1.97
2022-12-12T23:03:34.727Z,1.63
2022-12-12T23:06:03.353Z,1.30
2022-12-12T23:08:30.159Z,1.00
2022-12-12T23:10:56.825Z,1.43
2022-12-12T23:13:23.497Z,1.87
2022-12-12T23:15:50.206Z,1.60
2022-12-12T23:18:18.395Z,1.37
2022-12-12T23:20:46.089Z,1.43
2022-12-12T23:23:12.653Z,1.77
2022-12-12T23:25:39.250Z,2.07
2022-12-12T23:28:12.215Z,3.50
2022-12-12T23:30:40.432Z,2.10
2022-12-12T23:33:07.373Z,2.23
2022-12-12T23:35:33.931Z,1.60
2022-12-12T23:38:00.601Z,2.00
2022-12-12T23:40:27.202Z,2.30
2022-12-12T23:42:53.932Z,1.47
2022-12-12T23:45:20.508Z,1.07
2022-12-12T23:47:47.123Z,2.00
2022-12-12T23:50:13.712Z,1.40
2022-12-12T23:52:40.302Z,0.87
2022-12-12T23:55:07.290Z,1.80
2022-12-12T23:57:33.916Z,2.03
